Time;durP1;ratioP1;P1;durP2;ratioP2;P2;SDS_P1;SDS_P2;PMS_P1;PMS_P2;Temp;Humidity;BMP_temperature;BMP_pressure;BME280_temperature;BME280_humidity;BME280_pressure;Samples;Min_cycle;Max_cycle;Signal;HPM_P1;HPM_P2
2023/07/19 00:03:07;;;;;;;7.68;3.25;;;23.70;99.90;;;;;;10057903;28;20539;-75
2023/07/19 00:07:58;;;;;;;3.83;3.05;;;23.60;99.90;;;;;;10057563;28;20033;-73
2023/07/19 00:12:48;;;;;;;8.35;3.50;;;23.70;99.90;;;;;;10058057;28;20041;-75
2023/07/19 00:17:41;;;;;;;6.43;3.63;;;23.60;99.90;;;;;;10057627;28;20295;-75
2023/07/19 00:22:32;;;;;;;5.63;3.45;;;23.70;99.90;;;;;;10057249;28;20475;-73
2023/07/19 00:27:24;;;;;;;5.22;2.88;;;23.40;99.90;;;;;;10056287;28;20124;-74
2023/07/19 00:32:15;;;;;;;6.82;3.78;;;23.50;99.90;;;;;;10057055;28;20036;-74
2023/07/19 00:37:05;;;;;;;6.90;3.78;;;23.50;99.90;;;;;;10043881;28;20031;-74
2023/07/19 00:41:57;;;;;;;6.57;2.95;;;23.70;99.90;;;;;;10024612;28;20125;-74
2023/07/19 00:46:48;;;;;;;4.65;3.40;;;23.60;99.90;;;;;;10056632;28;20146;-74
2023/07/19 00:51:38;;;;;;;5.63;3.25;;;23.70;99.90;;;;;;10055096;28;20313;-75
2023/07/19 00:56:30;;;;;;;4.68;3.13;;;23.70;99.90;;;;;;10050647;28;20181;-75
2023/07/19 01:01:22;;;;;;;6.22;2.97;;;23.40;99.90;;;;;;10046253;28;20514;-75
2023/07/19 01:06:13;;;;;;;6.28;3.05;;;23.60;99.90;;;;;;10038252;28;20034;-75
2023/07/19 01:11:03;;;;;;;6.88;3.72;;;23.50;99.90;;;;;;10045432;28;20037;-75
2023/07/19 01:15:54;;;;;;;4.57;3.03;;;23.70;99.90;;;;;;10062623;28;20094;-75
2023/07/19 01:20:45;;;;;;;4.22;2.47;;;23.40;99.90;;;;;;10065510;28;20037;-76
2023/07/19 01:25:36;;;;;;;6.72;3.17;;;23.40;99.90;;;;;;10052963;28;20045;-75
2023/07/19 01:30:27;;;;;;;3.83;2.95;;;23.40;99.90;;;;;;10055322;28;20029;-75
2023/07/19 01:35:31;;;;;;;5.13;2.88;;;23.20;99.90;;;;;;10053919;28;20029;-74
2023/07/19 01:40:22;;;;;;;4.63;2.90;;;23.20;99.90;;;;;;10039941;28;20041;-75
2023/07/19 01:45:13;;;;;;;6.07;3.30;;;23.10;99.90;;;;;;10047924;28;20065;-74
2023/07/19 01:50:04;;;;;;;7.22;3.38;;;23.00;99.90;;;;;;10057383;28;20025;-75
2023/07/19 01:54:54;;;;;;;4.03;3.10;;;23.00;99.90;;;;;;10052019;28;20036;-73
2023/07/19 01:59:45;;;;;;;11.57;3.50;;;23.00;99.90;;;;;;10068863;28;20029;-75
2023/07/19 02:04:35;;;;;;;5.78;3.10;;;23.00;99.90;;;;;;10044739;28;20073;-74
2023/07/19 02:09:26;;;;;;;7.43;3.28;;;22.90;99.90;;;;;;10054947;28;20103;-73
2023/07/19 02:14:18;;;;;;;9.00;4.03;;;22.80;99.90;;;;;;10066624;28;20060;-74
2023/07/19 02:19:09;;;;;;;5.78;3.08;;;22.80;99.90;;;;;;10057241;28;20022;-74
2023/07/19 02:24:00;;;;;;;5.60;3.30;;;22.80;99.90;;;;;;10062312;28;20438;-74
2023/07/19 02:28:54;;;;;;;7.03;3.80;;;22.80;99.90;;;;;;10048888;28;20049;-74
2023/07/19 02:33:44;;;;;;;6.40;3.75;;;22.70;99.90;;;;;;10054804;28;20018;-75
2023/07/19 02:38:35;;;;;;;5.28;3.45;;;22.70;99.90;;;;;;10048061;28;20038;-74
2023/07/19 02:43:26;;;;;;;8.80;3.63;;;22.60;99.90;;;;;;10063456;28;20395;-73
2023/07/19 02:48:17;;;;;;;6.28;4.28;;;22.60;99.90;;;;;;10062132;28;20386;-75
2023/07/19 02:53:07;;;;;;;6.13;4.25;;;22.70;99.90;;;;;;10058817;28;20033;-74
2023/07/19 02:57:59;;;;;;;5.30;3.50;;;22.60;99.90;;;;;;10051542;28;20039;-73
2023/07/19 03:02:53;;;;;;;11.25;3.85;;;22.70;99.90;;;;;;10056687;28;20116;-73
2023/07/19 03:07:44;;;;;;;7.63;3.63;;;22.70;99.90;;;;;;10035354;28;20088;-73
2023/07/19 03:12:35;;;;;;;6.18;3.50;;;22.60;99.90;;;;;;10057603;28;20475;-75
2023/07/19 03:17:25;;;;;;;7.65;3.85;;;22.50;99.90;;;;;;10057814;28;20030;-74
2023/07/19 03:22:16;;;;;;;6.47;4.05;;;22.70;99.90;;;;;;10053150;28;20104;-74
2023/07/19 03:27:07;;;;;;;8.57;3.78;;;22.60;99.90;;;;;;10047961;28;20432;-73
2023/07/19 03:31:57;;;;;;;7.35;3.25;;;22.80;99.90;;;;;;10042772;28;20084;-74
2023/07/19 03:36:48;;;;;;;6.75;3.78;;;22.60;99.90;;;;;;10043439;28;20056;-74
2023/07/19 03:41:38;;;;;;;5.60;3.42;;;22.50;99.90;;;;;;10039631;28;20041;-74
2023/07/19 03:46:29;;;;;;;7.85;4.28;;;22.50;99.90;;;;;;10057736;28;20041;-75
2023/07/19 03:51:20;;;;;;;5.95;3.30;;;22.40;99.90;;;;;;10057373;28;20025;-74
2023/07/19 03:56:10;;;;;;;8.10;3.80;;;22.60;99.90;;;;;;10053983;28;20037;-73
2023/07/19 04:01:02;;;;;;;6.10;3.50;;;22.60;99.90;;;;;;10048951;28;20033;-73
2023/07/19 04:05:54;;;;;;;4.45;3.35;;;22.50;99.90;;;;;;10041629;28;20041;-74
2023/07/19 04:10:44;;;;;;;4.63;3.28;;;22.30;99.90;;;;;;10057207;28;20021;-73
2023/07/19 04:15:35;;;;;;;6.03;4.05;;;22.20;99.90;;;;;;10053540;28;20112;-74
2023/07/19 04:20:26;;;;;;;4.47;4.03;;;22.30;99.90;;;;;;10046672;28;20030;-74
2023/07/19 04:25:18;;;;;;;7.88;4.43;;;22.20;99.90;;;;;;10051322;28;20047;-73
2023/07/19 04:30:09;;;;;;;5.65;3.85;;;22.30;99.90;;;;;;10056980;28;20095;-73
2023/07/19 04:34:59;;;;;;;10.50;4.35;;;22.30;99.90;;;;;;10045906;28;20459;-73
2023/07/19 04:39:50;;;;;;;7.97;4.47;;;22.40;99.90;;;;;;10029477;28;20480;-74
2023/07/19 04:44:40;;;;;;;6.47;3.70;;;22.50;99.90;;;;;;10045568;28;20029;-73
2023/07/19 04:49:34;;;;;;;6.85;4.10;;;22.50;99.90;;;;;;10046472;28;20048;-75
2023/07/19 04:54:25;;;;;;;7.30;4.03;;;22.40;99.90;;;;;;10053221;28;20057;-75
2023/07/19 04:59:16;;;;;;;9.35;3.75;;;22.50;99.90;;;;;;10047088;28;20030;-74
2023/07/19 05:04:06;;;;;;;5.97;4.68;;;22.40;99.90;;;;;;10048879;28;20057;-74
2023/07/19 05:08:57;;;;;;;8.88;4.53;;;22.30;99.90;;;;;;10037022;28;20049;-73
2023/07/19 05:13:48;;;;;;;6.13;4.03;;;22.30;99.90;;;;;;10055285;28;20056;-74
2023/07/19 05:18:46;;;;;;;5.30;3.85;;;22.30;99.90;;;;;;10051178;28;20033;-74
2023/07/19 05:23:37;;;;;;;7.43;4.22;;;22.10;99.90;;;;;;10050623;28;20029;-74
2023/07/19 05:28:28;;;;;;;5.72;3.28;;;22.30;99.90;;;;;;10049110;28;20037;-75
2023/07/19 05:33:19;;;;;;;6.07;3.90;;;22.30;99.90;;;;;;10042121;28;20030;-75
2023/07/19 05:38:24;;;;;;;5.50;3.53;;;22.40;99.90;;;;;;10042146;28;20037;-75
2023/07/19 05:43:15;;;;;;;7.13;3.60;;;22.60;99.90;;;;;;10041442;28;20025;-74
2023/07/19 05:48:06;;;;;;;7.07;3.85;;;22.70;99.90;;;;;;10044051;28;20052;-74
2023/07/19 05:52:57;;;;;;;4.90;3.00;;;22.50;99.90;;;;;;10050379;28;20026;-74
2023/07/19 05:57:48;;;;;;;7.93;3.65;;;22.50;99.90;;;;;;10049929;28;20072;-74
2023/07/19 06:02:38;;;;;;;8.25;3.75;;;22.50;99.90;;;;;;10050839;28;20022;-74
2023/07/19 06:07:29;;;;;;;5.32;3.42;;;22.70;99.90;;;;;;10048577;28;20033;-75
2023/07/19 06:12:20;;;;;;;10.82;4.00;;;22.70;99.90;;;;;;10054925;28;20515;-73
2023/07/19 06:17:11;;;;;;;6.57;3.95;;;22.80;99.90;;;;;;10060362;28;20037;-72
2023/07/19 06:22:05;;;;;;;6.07;3.50;;;22.90;99.90;;;;;;10058846;28;20074;-74
2023/07/19 06:26:56;;;;;;;8.07;5.13;;;22.80;99.90;;;;;;10058428;28;20439;-74
2023/07/19 06:31:57;;;;;;;5.47;3.45;;;22.80;99.90;;;;;;10061521;28;20276;-74
2023/07/19 06:36:47;;;;;;;5.43;3.70;;;22.90;99.90;;;;;;10041053;28;20104;-74
2023/07/19 06:41:38;;;;;;;5.38;3.40;;;22.80;99.90;;;;;;10037820;28;20080;-75
2023/07/19 06:46:29;;;;;;;8.88;3.40;;;22.80;99.90;;;;;;10058825;28;20095;-74
2023/07/19 06:51:19;;;;;;;7.68;3.78;;;22.80;99.90;;;;;;10048130;28;20026;-74
2023/07/19 06:56:10;;;;;;;7.25;3.42;;;22.90;99.90;;;;;;10048423;28;20056;-74
2023/07/19 07:01:01;;;;;;;6.45;3.20;;;23.00;99.90;;;;;;10056780;28;20025;-74
2023/07/19 07:05:51;;;;;;;4.72;3.38;;;23.00;99.90;;;;;;10050013;28;20026;-75
2023/07/19 07:10:45;;;;;;;6.82;2.75;;;23.10;99.90;;;;;;10035298;28;20079;-75
2023/07/19 07:15:36;;;;;;;4.95;3.28;;;23.10;99.90;;;;;;10061683;28;20029;-74
2023/07/19 07:20:26;;;;;;;4.70;3.10;;;23.20;99.90;;;;;;10053577;28;20113;-74
2023/07/19 07:25:17;;;;;;;4.45;3.08;;;23.30;99.90;;;;;;10049919;28;20038;-74
2023/07/19 07:30:09;;;;;;;4.53;3.05;;;23.40;99.90;;;;;;10052682;28;20036;-74
2023/07/19 07:35:00;;;;;;;6.28;3.33;;;23.40;99.90;;;;;;10050501;28;20127;-75
2023/07/19 07:39:51;;;;;;;5.63;2.83;;;23.50;99.90;;;;;;10046923;28;20099;-75
2023/07/19 07:44:41;;;;;;;3.78;2.28;;;23.50;99.90;;;;;;10062478;28;20026;-74
2023/07/19 07:49:32;;;;;;;6.75;3.03;;;23.60;99.90;;;;;;10054729;28;20038;-73
2023/07/19 07:54:28;;;;;;;7.93;4.03;;;23.60;99.90;;;;;;10051882;28;20544;-74
2023/07/19 07:59:19;;;;;;;5.05;2.85;;;23.70;99.90;;;;;;10055253;28;20030;-74
2023/07/19 08:04:11;;;;;;;4.70;2.95;;;23.80;99.90;;;;;;10047961;28;20033;-74
2023/07/19 08:09:02;;;;;;;4.63;2.67;;;23.80;99.90;;;;;;10030426;28;20074;-74
2023/07/19 08:13:53;;;;;;;5.57;2.78;;;23.90;99.90;;;;;;10056392;28;20499;-74
2023/07/19 08:18:44;;;;;;;4.47;2.90;;;24.00;99.90;;;;;;10051640;28;20026;-74
2023/07/19 08:23:35;;;;;;;3.33;2.42;;;24.00;99.90;;;;;;10051970;28;20423;-76
2023/07/19 08:28:25;;;;;;;4.50;2.33;;;24.00;99.90;;;;;;10041310;28;20095;-75
2023/07/19 08:33:16;;;;;;;5.10;2.30;;;24.10;99.90;;;;;;10042719;28;20029;-74
2023/07/19 08:38:07;;;;;;;3.92;2.45;;;24.10;99.90;;;;;;10036102;28;20554;-74
2023/07/19 08:42:57;;;;;;;5.95;2.75;;;24.10;99.90;;;;;;10037184;28;20722;-73
2023/07/19 08:47:50;;;;;;;4.88;2.35;;;24.20;99.90;;;;;;10059034;28;20533;-72
2023/07/19 08:52:41;;;;;;;5.90;2.47;;;24.20;99.90;;;;;;10049744;28;20104;-71
2023/07/19 08:57:37;;;;;;;6.68;2.35;;;24.20;99.90;;;;;;10053577;28;20033;-72
2023/07/19 09:02:27;;;;;;;4.90;2.30;;;24.40;99.90;;;;;;10049303;28;20033;-72
2023/07/19 09:07:18;;;;;;;3.60;1.98;;;24.50;99.90;;;;;;10045531;28;20514;-71
2023/07/19 09:12:10;;;;;;;3.92;2.40;;;24.50;99.90;;;;;;10036499;28;20496;-72
2023/07/19 09:17:02;;;;;;;3.60;2.50;;;24.60;99.90;;;;;;10054628;28;20088;-73
2023/07/19 09:21:52;;;;;;;3.40;2.60;;;24.70;99.90;;;;;;10045667;28;20079;-71
2023/07/19 09:26:44;;;;;;;4.40;2.28;;;24.70;99.90;;;;;;10043900;28;20456;-72
2023/07/19 09:31:50;;;;;;;3.33;2.20;;;24.90;99.90;;;;;;10039726;28;20514;-66
2023/07/19 09:36:41;;;;;;;3.67;2.45;;;25.00;99.90;;;;;;10056429;28;20041;-68
2023/07/19 09:41:33;;;;;;;3.80;2.28;;;25.10;99.90;;;;;;10031234;28;20442;-66
2023/07/19 09:46:25;;;;;;;4.68;3.30;;;25.10;99.90;;;;;;10061780;28;20048;-68
2023/07/19 09:51:16;;;;;;;7.07;2.58;;;25.20;99.90;;;;;;10058658;28;20426;-68
2023/07/19 09:56:11;;;;;;;4.32;2.60;;;25.30;99.90;;;;;;10053094;28;20109;-67
2023/07/19 10:01:02;;;;;;;4.28;2.20;;;25.30;99.90;;;;;;10055809;28;20106;-66
2023/07/19 10:05:57;;;;;;;5.85;2.63;;;25.30;99.90;;;;;;10042736;28;20128;-69
2023/07/19 10:10:56;;;;;;;4.88;2.67;;;25.30;99.90;;;;;;10043339;28;20022;-67
2023/07/19 10:15:51;;;;;;;6.30;2.50;;;25.40;99.90;;;;;;10059932;28;20045;-69
2023/07/19 10:20:44;;;;;;;3.45;2.15;;;25.50;99.90;;;;;;10055897;28;20021;-68
2023/07/19 10:25:44;;;;;;;4.63;2.70;;;25.60;99.90;;;;;;10052634;28;20041;-68
2023/07/19 10:30:44;;;;;;;3.72;2.50;;;25.80;99.90;;;;;;10061329;28;20029;-68
2023/07/19 10:35:34;;;;;;;4.47;2.42;;;25.90;99.90;;;;;;10055780;28;20495;-68
2023/07/19 10:40:25;;;;;;;5.93;2.20;;;26.00;99.90;;;;;;10039738;28;20017;-68
2023/07/19 10:45:16;;;;;;;5.35;2.38;;;26.10;99.90;;;;;;10063587;28;20316;-68
2023/07/19 10:50:08;;;;;;;4.30;2.70;;;26.30;99.90;;;;;;10060925;28;20438;-68
2023/07/19 10:54:59;;;;;;;4.50;2.33;;;26.50;99.90;;;;;;10045054;28;20248;-68
2023/07/19 10:59:51;;;;;;;4.75;2.08;;;26.50;99.90;;;;;;10053348;28;20268;-68
2023/07/19 11:04:41;;;;;;;5.18;2.47;;;26.50;99.90;;;;;;10055307;28;20033;-68
2023/07/19 11:09:32;;;;;;;3.97;1.92;;;26.50;99.90;;;;;;10059665;28;20033;-68
2023/07/19 11:14:33;;;;;;;4.85;2.50;;;26.50;99.90;;;;;;10060234;28;20075;-69
2023/07/19 11:19:38;;;;;;;4.72;2.00;;;26.50;99.90;;;;;;10046056;28;20095;-70
2023/07/19 11:24:34;;;;;;;;;;;26.50;99.90;;;;;;10047717;28;20033;-67
2023/07/19 11:29:31;;;;;;;3.67;2.15;;;26.60;99.90;;;;;;10048353;28;20464;-70
2023/07/19 11:34:21;;;;;;;4.05;2.10;;;26.70;99.90;;;;;;10045756;28;20379;-69
2023/07/19 11:39:16;;;;;;;4.15;2.20;;;26.70;99.90;;;;;;10042026;28;20030;-66
2023/07/19 11:44:16;;;;;;;4.85;1.92;;;26.80;99.90;;;;;;10053460;28;20350;-68
2023/07/19 11:49:09;;;;;;;4.13;1.95;;;26.80;99.90;;;;;;10052533;28;20033;-68
2023/07/19 11:53:59;;;;;;;16.98;2.30;;;26.80;99.90;;;;;;10051263;28;20056;-68
2023/07/19 11:58:50;;;;;;;6.28;2.30;;;26.80;99.90;;;;;;10051312;28;20041;-68
2023/07/19 12:03:42;;;;;;;4.38;2.30;;;26.80;99.90;;;;;;10044020;28;20088;-68
2023/07/19 12:08:34;;;;;;;5.32;1.48;;;26.90;99.90;;;;;;10041587;28;20029;-67
2023/07/19 12:13:24;;;;;;;14.48;2.30;;;26.90;99.70;;;;;;10056446;28;20036;-68
2023/07/19 12:18:15;;;;;;;3.53;2.22;;;26.90;99.70;;;;;;10052068;28;20037;-68
2023/07/19 12:23:06;;;;;;;2.47;1.90;;;26.90;99.60;;;;;;10046306;28;20456;-69
2023/07/19 12:27:58;;;;;;;7.25;1.80;;;26.90;99.40;;;;;;10042339;28;20399;-68
2023/07/19 12:32:48;;;;;;;5.00;2.13;;;26.90;99.20;;;;;;10045178;28;20125;-67
2023/07/19 12:37:39;;;;;;;3.40;2.30;;;27.00;99.00;;;;;;10034686;28;20109;-66
2023/07/19 12:42:29;;;;;;;4.10;2.05;;;27.10;98.90;;;;;;10031384;28;20116;-68
2023/07/19 12:47:20;;;;;;;3.97;2.08;;;27.10;98.90;;;;;;10040038;28;20037;-68
2023/07/19 12:52:11;;;;;;;4.13;1.85;;;27.30;98.70;;;;;;10052233;28;20712;-68
2023/07/19 12:57:02;;;;;;;3.92;1.73;;;27.40;98.70;;;;;;10053337;28;20151;-68
2023/07/19 13:01:52;;;;;;;2.25;1.42;;;27.40;98.60;;;;;;10046571;28;20109;-68
2023/07/19 13:06:43;;;;;;;2.83;1.77;;;27.40;98.70;;;;;;10045047;28;20048;-69
2023/07/19 13:11:35;;;;;;;2.72;1.67;;;27.50;98.80;;;;;;10042638;28;20741;-68
2023/07/19 13:16:26;;;;;;;4.95;1.85;;;27.50;98.80;;;;;;10062342;28;20293;-68
2023/07/19 13:21:17;;;;;;;3.65;1.67;;;27.70;98.70;;;;;;10058598;28;20231;-68
2023/07/19 13:26:07;;;;;;;6.85;2.80;;;27.70;98.70;;;;;;10054348;28;20816;-70
2023/07/19 13:30:59;;;;;;;4.10;2.10;;;27.80;98.50;;;;;;10051542;28;20408;-70
2023/07/19 13:35:51;;;;;;;3.90;1.77;;;27.90;98.50;;;;;;10046237;28;20026;-71
2023/07/19 13:40:41;;;;;;;6.25;1.90;;;28.00;98.30;;;;;;10031201;28;20092;-70
2023/07/19 13:45:33;;;;;;;3.33;1.80;;;27.90;98.30;;;;;;10047698;28;20038;-68
2023/07/19 13:50:24;;;;;;;2.65;2.10;;;27.90;98.30;;;;;;10055901;28;20041;-68
2023/07/19 13:55:14;;;;;;;2.30;1.60;;;28.00;98.20;;;;;;10054539;28;20048;-68
2023/07/19 14:00:06;;;;;;;3.80;2.08;;;28.30;97.90;;;;;;10059085;28;20160;-68
2023/07/19 14:04:57;;;;;;;4.43;2.10;;;28.30;97.60;;;;;;10043069;28;20407;-70
2023/07/19 14:09:48;;;;;;;4.68;2.08;;;28.50;97.20;;;;;;10050124;28;20095;-68
2023/07/19 14:14:38;;;;;;;3.42;2.30;;;28.70;96.90;;;;;;10059355;28;20132;-67
2023/07/19 14:19:29;;;;;;;4.18;1.77;;;28.90;96.70;;;;;;10058444;28;20029;-67
2023/07/19 14:24:19;;;;;;;3.28;2.10;;;29.10;96.50;;;;;;10043153;28;20143;-70
2023/07/19 14:29:10;;;;;;;3.30;2.17;;;29.10;96.10;;;;;;10049354;28;20049;-69
2023/07/19 14:34:01;;;;;;;4.45;2.25;;;28.90;95.90;;;;;;10056193;28;20654;-68
2023/07/19 14:38:51;;;;;;;5.15;3.10;;;28.80;95.50;;;;;;10043343;28;20034;-67
2023/07/19 14:43:42;;;;;;;3.25;2.05;;;28.60;95.40;;;;;;10041655;28;20034;-68
2023/07/19 14:48:33;;;;;;;4.93;2.15;;;28.60;95.20;;;;;;10045029;28;20121;-69
2023/07/19 14:53:24;;;;;;;4.55;2.42;;;28.60;95.20;;;;;;10056390;28;20017;-67
2023/07/19 14:58:14;;;;;;;3.97;2.15;;;28.50;94.90;;;;;;10057315;28;20037;-69
2023/07/19 15:03:05;;;;;;;3.17;1.95;;;28.50;94.70;;;;;;10045546;28;20025;-68
2023/07/19 15:07:55;;;;;;;6.75;2.38;;;28.50;94.70;;;;;;10034267;28;20081;-68
2023/07/19 15:12:46;;;;;;;2.30;1.65;;;28.50;94.50;;;;;;10050893;28;20045;-68
2023/07/19 15:17:37;;;;;;;3.28;1.98;;;28.70;94.30;;;;;;10041488;28;20061;-67
2023/07/19 15:22:27;;;;;;;3.80;2.08;;;28.70;94.00;;;;;;10054027;28;20108;-67
2023/07/19 15:27:18;;;;;;;3.08;1.98;;;28.60;93.80;;;;;;10053694;28;20049;-68
2023/07/19 15:32:09;;;;;;;5.10;2.28;;;28.60;93.80;;;;;;10044586;28;20108;-69
2023/07/19 15:36:59;;;;;;;3.67;1.95;;;28.80;93.60;;;;;;10046093;28;20406;-67
2023/07/19 15:41:50;;;;;;;2.08;1.70;;;28.80;93.30;;;;;;10035893;28;20272;-68
2023/07/19 15:46:41;;;;;;;3.17;1.40;;;28.90;93.00;;;;;;10034442;28;20049;-69
2023/07/19 15:51:35;;;;;;;2.35;1.40;;;29.00;92.40;;;;;;10053063;28;20033;-68
2023/07/19 15:56:26;;;;;;;3.42;1.60;;;28.90;92.20;;;;;;10049098;28;20120;-69
2023/07/19 16:01:16;;;;;;;3.97;1.90;;;29.10;92.10;;;;;;10051268;28;20116;-69
2023/07/19 16:06:07;;;;;;;2.15;1.27;;;29.80;91.60;;;;;;10050975;28;20048;-68
2023/07/19 16:10:58;;;;;;;2.17;1.33;;;30.70;91.00;;;;;;10021421;28;20103;-69
2023/07/19 16:15:49;;;;;;;4.35;1.65;;;31.30;90.40;;;;;;10051967;28;20116;-68
2023/07/19 16:20:40;;;;;;;2.95;1.80;;;31.50;89.40;;;;;;10055068;28;20036;-68
2023/07/19 16:25:31;;;;;;;5.07;1.58;;;30.80;88.60;;;;;;10046374;28;20518;-67
2023/07/19 16:30:23;;;;;;;5.35;1.35;;;30.00;88.60;;;;;;10042669;28;20096;-69
2023/07/19 16:35:14;;;;;;;2.33;1.17;;;29.60;88.70;;;;;;10043984;28;20021;-68
2023/07/19 16:40:05;;;;;;;1.92;1.20;;;29.30;88.00;;;;;;10027664;28;20033;-67
2023/07/19 16:44:56;;;;;;;2.92;1.30;;;29.10;87.50;;;;;;10025616;28;20034;-69
2023/07/19 16:49:46;;;;;;;2.33;1.23;;;29.00;87.10;;;;;;10051379;28;20130;-67
2023/07/19 16:54:38;;;;;;;2.50;1.50;;;28.90;87.20;;;;;;10051276;28;20530;-67
2023/07/19 16:59:29;;;;;;;2.72;1.45;;;29.00;86.80;;;;;;10045906;28;20034;-69
2023/07/19 17:04:19;;;;;;;4.53;1.60;;;29.00;86.50;;;;;;10045073;28;20053;-68
2023/07/19 17:09:10;;;;;;;1.48;1.08;;;29.20;86.40;;;;;;10043931;28;20140;-69
2023/07/19 17:14:00;;;;;;;3.28;1.30;;;30.20;85.40;;;;;;10055765;28;20115;-68
2023/07/19 17:18:52;;;;;;;1.67;1.40;;;30.70;85.10;;;;;;10052768;28;20486;-67
2023/07/19 17:23:43;;;;;;;2.72;1.30;;;30.50;85.10;;;;;;10080130;28;20071;-67
2023/07/19 17:28:33;;;;;;;2.20;1.20;;;30.60;84.50;;;;;;10037561;28;20065;-68
2023/07/19 17:33:24;;;;;;;1.27;0.88;;;30.60;84.20;;;;;;10048826;28;20100;-68
2023/07/19 17:38:15;;;;;;;3.78;1.15;;;30.70;83.40;;;;;;10025845;28;20036;-68
2023/07/19 17:43:05;;;;;;;1.77;1.02;;;30.70;82.60;;;;;;10030473;28;20098;-68
2023/07/19 17:47:56;;;;;;;2.05;1.17;;;30.80;82.50;;;;;;10050581;28;20141;-68
2023/07/19 17:52:46;;;;;;;2.95;1.20;;;31.00;82.00;;;;;;10051306;28;20037;-69
2023/07/19 17:57:37;;;;;;;5.35;1.27;;;30.90;81.80;;;;;;10055576;28;20373;-68
2023/07/19 18:02:28;;;;;;;3.85;1.30;;;30.70;81.40;;;;;;10050785;28;20049;-68
2023/07/19 18:07:19;;;;;;;2.45;1.25;;;30.20;81.60;;;;;;10039055;28;20052;-69
2023/07/19 18:12:10;;;;;;;1.95;1.23;;;29.70;81.80;;;;;;10048902;28;20127;-68
2023/07/19 18:17:01;;;;;;;1.92;1.15;;;29.40;81.80;;;;;;10056606;28;20053;-68
2023/07/19 18:21:51;;;;;;;3.08;1.25;;;29.30;82.10;;;;;;10052495;28;20084;-68
2023/07/19 18:26:42;;;;;;;3.55;1.58;;;29.20;81.60;;;;;;10047993;28;20045;-68
2023/07/19 18:31:33;;;;;;;2.38;1.10;;;28.90;82.00;;;;;;10076338;28;20039;-68
2023/07/19 18:36:24;;;;;;;5.90;1.45;;;29.00;82.20;;;;;;10042711;28;20124;-68
2023/07/19 18:41:14;;;;;;;3.10;1.50;;;28.90;82.20;;;;;;10058847;28;20025;-69
2023/07/19 18:46:05;;;;;;;2.83;1.17;;;28.80;82.40;;;;;;10063770;28;20496;-69
2023/07/19 18:50:56;;;;;;;2.13;0.98;;;28.70;82.50;;;;;;10060473;28;20026;-68
2023/07/19 18:55:47;;;;;;;1.20;0.80;;;28.50;82.50;;;;;;10060773;28;20036;-68
2023/07/19 19:00:37;;;;;;;3.70;1.08;;;28.40;82.60;;;;;;10053272;28;20263;-68
2023/07/19 19:05:28;;;;;;;4.22;0.82;;;28.30;82.50;;;;;;10059277;28;20049;-70
2023/07/19 19:10:19;;;;;;;3.25;1.35;;;28.30;82.50;;;;;;10060519;28;20499;-68
2023/07/19 19:15:12;;;;;;;3.25;1.35;;;28.30;82.30;;;;;;10060145;28;20049;-68
2023/07/19 19:20:02;;;;;;;3.58;1.00;;;28.40;82.40;;;;;;10058395;28;20487;-67
2023/07/19 19:24:53;;;;;;;2.88;1.35;;;28.20;82.20;;;;;;10059809;28;20041;-68
2023/07/19 19:29:44;;;;;;;2.90;1.38;;;28.00;82.50;;;;;;10060175;28;20068;-67
2023/07/19 19:34:36;;;;;;;2.60;1.00;;;28.00;82.20;;;;;;10052492;28;20037;-67
2023/07/19 19:39:27;;;;;;;1.27;0.82;;;28.00;82.00;;;;;;10046394;28;20221;-68
2023/07/19 19:44:17;;;;;;;2.88;1.30;;;27.90;81.90;;;;;;10037124;28;20173;-67
2023/07/19 19:49:08;;;;;;;2.67;1.38;;;27.70;82.00;;;;;;10050394;28;20116;-67
2023/07/19 19:53:59;;;;;;;5.68;1.55;;;27.70;81.90;;;;;;10052755;28;20047;-66
2023/07/19 19:58:49;;;;;;;2.40;1.17;;;27.60;82.10;;;;;;10053472;28;20287;-68
2023/07/19 20:03:40;;;;;;;5.53;1.40;;;27.50;81.60;;;;;;10053461;28;20032;-67
2023/07/19 20:08:31;;;;;;;2.17;1.00;;;27.40;81.50;;;;;;10042709;28;20037;-68
2023/07/19 20:13:22;;;;;;;6.50;2.15;;;27.10;81.90;;;;;;10046918;28;20385;-68
2023/07/19 20:18:13;;;;;;;3.15;1.63;;;27.10;82.20;;;;;;10049558;28;20021;-69
2023/07/19 20:23:03;;;;;;;5.13;1.92;;;27.00;82.10;;;;;;10079900;28;20407;-69
2023/07/19 20:27:54;;;;;;;3.15;1.92;;;26.90;82.50;;;;;;10042302;28;20040;-69
2023/07/19 20:32:45;;;;;;;3.85;1.73;;;26.90;82.20;;;;;;10043812;28;20041;-70
2023/07/19 20:37:35;;;;;;;3.90;1.75;;;26.90;82.10;;;;;;10039634;28;20643;-72
2023/07/19 20:42:26;;;;;;;3.65;1.83;;;26.80;82.10;;;;;;10047916;28;20480;-69
2023/07/19 20:47:16;;;;;;;5.55;2.17;;;26.90;82.40;;;;;;10041454;28;20186;-69
2023/07/19 20:52:08;;;;;;;2.95;1.83;;;26.80;82.30;;;;;;10051039;28;20412;-70
2023/07/19 20:56:59;;;;;;;4.57;2.15;;;26.60;82.70;;;;;;10047518;28;20033;-69
2023/07/19 21:01:49;;;;;;;3.85;2.38;;;26.60;82.80;;;;;;10045744;28;20034;-69
2023/07/19 21:06:40;;;;;;;6.05;2.45;;;26.60;82.70;;;;;;10041485;28;20091;-68
2023/07/19 21:11:31;;;;;;;5.43;2.35;;;26.50;83.00;;;;;;10047018;28;20498;-67
2023/07/19 21:16:21;;;;;;;4.68;2.15;;;26.60;82.80;;;;;;10051929;28;20030;-67
2023/07/19 21:21:12;;;;;;;5.90;2.83;;;26.50;83.00;;;;;;10058634;28;20108;-66
2023/07/19 21:26:03;;;;;;;3.05;2.60;;;26.40;83.20;;;;;;10041967;28;20042;-68
2023/07/19 21:30:54;;;;;;;7.53;2.53;;;26.30;83.30;;;;;;10048064;28;20705;-68
2023/07/19 21:35:44;;;;;;;7.15;2.83;;;26.30;83.30;;;;;;10050492;28;20084;-69
2023/07/19 21:40:35;;;;;;;3.80;2.20;;;26.30;83.20;;;;;;10033495;28;20487;-67
2023/07/19 21:45:26;;;;;;;4.97;2.97;;;26.20;83.10;;;;;;10036798;28;20029;-68
2023/07/19 21:50:17;;;;;;;3.28;1.98;;;26.20;83.10;;;;;;10052178;28;20116;-68
2023/07/19 21:55:09;;;;;;;5.07;1.90;;;26.10;83.30;;;;;;10057693;28;20441;-68
2023/07/19 21:59:59;;;;;;;4.55;2.08;;;26.20;83.20;;;;;;10058230;28;20057;-68
2023/07/19 22:04:50;;;;;;;2.97;2.40;;;26.10;82.90;;;;;;10052391;28;20037;-68
2023/07/19 22:09:42;;;;;;;3.72;1.88;;;26.10;82.80;;;;;;10039980;28;20135;-67
2023/07/19 22:14:33;;;;;;;3.97;1.90;;;26.10;83.00;;;;;;10061362;28;20053;-67
2023/07/19 22:19:24;;;;;;;4.97;2.10;;;26.10;82.80;;;;;;10056636;28;20597;-67
2023/07/19 22:24:14;;;;;;;3.13;2.10;;;26.20;82.60;;;;;;10054479;28;20044;-67
2023/07/19 22:29:05;;;;;;;4.03;1.77;;;26.00;82.80;;;;;;10049757;28;20054;-66
2023/07/19 22:33:55;;;;;;;5.57;2.17;;;26.00;82.60;;;;;;10054253;28;20274;-69
2023/07/19 22:38:46;;;;;;;2.15;1.48;;;26.00;82.70;;;;;;10043552;28;20145;-68
2023/07/19 22:43:37;;;;;;;2.25;1.77;;;25.90;82.50;;;;;;10040587;28;20050;-67
2023/07/19 22:48:27;;;;;;;3.47;2.00;;;25.70;82.90;;;;;;10053362;28;20041;-67
2023/07/19 22:53:18;;;;;;;3.38;1.80;;;25.70;83.20;;;;;;10067838;28;20025;-67
2023/07/19 22:58:08;;;;;;;4.40;1.83;;;25.60;83.20;;;;;;10054195;28;20068;-66
2023/07/19 23:02:59;;;;;;;4.28;1.92;;;25.70;83.20;;;;;;10046257;28;20108;-66
2023/07/19 23:07:53;;;;;;;2.00;1.73;;;25.50;83.20;;;;;;10032486;28;20046;-66
2023/07/19 23:12:48;;;;;;;3.05;1.98;;;25.60;83.20;;;;;;10052390;28;20081;-66
2023/07/19 23:17:38;;;;;;;6.43;1.88;;;25.60;83.00;;;;;;10049325;28;20511;-67
2023/07/19 23:22:29;;;;;;;3.22;1.75;;;25.70;82.90;;;;;;10056745;28;20033;-68
2023/07/19 23:27:20;;;;;;;3.10;2.00;;;25.50;83.10;;;;;;10047462;28;20080;-67
2023/07/19 23:32:10;;;;;;;4.75;1.88;;;25.50;83.10;;;;;;10052646;28;20030;-67
2023/07/19 23:37:01;;;;;;;2.13;1.50;;;25.60;82.90;;;;;;10047199;28;20430;-67
2023/07/19 23:41:52;;;;;;;4.43;1.60;;;25.40;83.00;;;;;;10039513;28;20083;-68
2023/07/19 23:46:43;;;;;;;3.05;1.58;;;25.20;83.50;;;;;;10058774;28;20175;-68
2023/07/19 23:51:33;;;;;;;6.80;1.75;;;25.30;83.30;;;;;;10052853;28;20125;-68
2023/07/19 23:56:24;;;;;;;3.10;1.52;;;25.20;83.60;;;;;;10052168;28;20033;-68
